createdAt,value
2019-05-20T00:00:44.704Z,33.87
2019-05-20T00:03:14.088Z,34.33
2019-05-20T00:05:43.902Z,30.70
2019-05-20T00:08:13.418Z,27.57
2019-05-20T00:10:46.772Z,23.87
2019-05-20T00:13:16.220Z,28.20
2019-05-20T00:15:45.582Z,32.57
2019-05-20T00:18:15.066Z,29.03
2019-05-20T00:20:44.580Z,37.03
2019-05-20T00:23:14.037Z,32.60
2019-05-20T00:25:45.121Z,37.93
2019-05-20T00:28:17.032Z,42.63
2019-05-20T00:30:46.612Z,38.27
2019-05-20T00:33:16.125Z,42.17
2019-05-20T00:35:45.698Z,40.80
2019-05-20T00:38:15.243Z,36.77
2019-05-20T00:40:44.864Z,38.50
2019-05-20T00:43:14.883Z,39.77
2019-05-20T00:45:44.346Z,38.37
2019-05-20T00:48:13.775Z,40.53
2019-05-20T00:50:43.178Z,49.93
2019-05-20T00:53:12.643Z,38.20
2019-05-20T00:55:42.591Z,39.47
2019-05-20T00:58:12.012Z,44.63
2019-05-20T01:00:44.804Z,44.13
2019-05-20T01:03:14.287Z,43.03
2019-05-20T01:05:43.671Z,44.17
2019-05-20T01:08:14.451Z,47.17
2019-05-20T01:10:43.944Z,43.23
2019-05-20T01:13:13.363Z,41.63
2019-05-20T01:15:42.819Z,47.73
2019-05-20T01:18:12.284Z,51.20
2019-05-20T01:20:41.664Z,49.63
2019-05-20T01:23:11.079Z,43.43
2019-05-20T01:25:40.471Z,47.10
2019-05-20T01:28:09.760Z,43.90
2019-05-20T01:30:39.290Z,64.27
2019-05-20T01:33:13.674Z,43.73
2019-05-20T01:35:39.800Z,60.57
2019-05-20T01:38:09.241Z,45.67
2019-05-20T01:40:38.801Z,53.90
2019-05-20T01:43:08.139Z,58.23
2019-05-20T01:45:37.635Z,53.90
2019-05-20T01:48:07.155Z,52.90
2019-05-20T01:50:36.648Z,46.20
2019-05-20T01:53:06.128Z,53.40
2019-05-20T01:55:35.559Z,59.37
2019-05-20T01:58:05.099Z,53.17
2019-05-20T02:00:34.709Z,66.53
2019-05-20T02:03:04.106Z,59.70
2019-05-20T02:05:33.643Z,48.20
2019-05-20T02:08:03.011Z,70.80
2019-05-20T02:10:32.480Z,56.00
2019-05-20T02:13:01.969Z,63.03
2019-05-20T02:15:37.435Z,55.17
2019-05-20T02:18:06.923Z,61.67
2019-05-20T02:20:36.279Z,54.73
2019-05-20T02:23:17.624Z,54.00
2019-05-20T02:25:49.405Z,61.43
2019-05-20T02:28:18.878Z,68.77
2019-05-20T02:30:48.335Z,60.60
2019-05-20T02:33:17.781Z,55.10
2019-05-20T02:35:47.156Z,63.47
2019-05-20T02:38:16.714Z,63.63
2019-05-20T02:40:46.099Z,58.00
2019-05-20T02:43:15.469Z,51.87
2019-05-20T02:45:44.958Z,66.97
2019-05-20T02:48:14.462Z,59.87
2019-05-20T02:50:43.774Z,59.53
2019-05-20T02:53:13.369Z,63.50
2019-05-20T02:55:42.742Z,62.23
2019-05-20T02:58:12.221Z,64.40
2019-05-20T03:00:41.731Z,70.97
2019-05-20T03:03:11.131Z,59.53
2019-05-20T03:05:40.454Z,69.03
2019-05-20T03:08:10.060Z,66.93
2019-05-20T03:10:39.465Z,76.77
2019-05-20T03:13:08.924Z,80.23
2019-05-20T03:15:38.485Z,74.10
2019-05-20T03:18:07.854Z,67.20
2019-05-20T03:20:37.431Z,73.07
2019-05-20T03:23:06.885Z,76.80
2019-05-20T03:25:36.287Z,67.57
2019-05-20T03:28:05.951Z,79.80
2019-05-20T03:30:35.383Z,76.73
2019-05-20T03:33:04.785Z,78.07
2019-05-20T03:35:34.246Z,74.57
2019-05-20T03:38:03.704Z,89.70
2019-05-20T03:40:33.132Z,81.50
2019-05-20T03:43:02.558Z,72.57
2019-05-20T03:45:32.089Z,88.93
2019-05-20T03:48:01.478Z,78.07
2019-05-20T03:50:30.954Z,76.73
2019-05-20T03:53:00.366Z,83.13
2019-05-20T03:55:29.838Z,90.33
2019-05-20T03:57:59.250Z,87.53
2019-05-20T04:00:44.049Z,89.07
2019-05-20T04:03:13.936Z,92.73
2019-05-20T04:05:43.474Z,104.17
2019-05-20T04:08:12.883Z,103.03
2019-05-20T04:10:42.262Z,98.77
2019-05-20T04:13:11.847Z,98.13
2019-05-20T04:15:41.412Z,102.50
2019-05-20T04:18:10.878Z,92.63
2019-05-20T04:20:40.308Z,90.97
2019-05-20T04:23:09.919Z,113.53
2019-05-20T04:25:39.382Z,81.83
2019-05-20T04:28:08.938Z,102.00
2019-05-20T04:30:38.328Z,107.53
2019-05-20T04:33:07.819Z,102.17
2019-05-20T04:35:37.331Z,95.17
2019-05-20T04:38:06.812Z,105.13
2019-05-20T04:40:36.339Z,103.93
2019-05-20T04:43:05.831Z,95.17
2019-05-20T04:45:35.367Z,103.03
2019-05-20T04:48:04.908Z,95.20
2019-05-20T04:50:34.375Z,114.23
2019-05-20T04:53:03.756Z,116.60
2019-05-20T04:55:33.276Z,106.27
2019-05-20T04:58:02.691Z,115.53
2019-05-20T05:01:03.200Z,134.67
2019-05-20T05:03:32.953Z,121.20
2019-05-20T05:06:02.307Z,126.70
2019-05-20T05:08:31.880Z,103.87
2019-05-20T05:11:01.268Z,120.30
2019-05-20T05:13:30.776Z,153.60
2019-05-20T05:16:00.165Z,120.47
2019-05-20T05:18:29.717Z,116.63
2019-05-20T05:20:59.217Z,101.00
2019-05-20T05:23:28.718Z,109.60
2019-05-20T05:25:58.333Z,110.60
2019-05-20T05:28:27.777Z,110.87
2019-05-20T05:30:57.245Z,122.70
2019-05-20T05:33:26.730Z,111.40
2019-05-20T05:35:56.205Z,121.23
2019-05-20T05:38:25.764Z,109.13
2019-05-20T05:40:55.367Z,109.30
2019-05-20T05:43:24.743Z,119.47
2019-05-20T05:45:54.146Z,117.87
2019-05-20T05:48:23.693Z,136.80
2019-05-20T05:50:53.081Z,106.47
2019-05-20T05:53:22.483Z,137.23
2019-05-20T05:55:51.956Z,109.40
2019-05-20T05:58:21.412Z,127.23
2019-05-20T06:00:50.863Z,112.87
2019-05-20T06:03:20.322Z,99.50
2019-05-20T06:05:49.738Z,106.97
2019-05-20T06:08:19.294Z,122.07
2019-05-20T06:10:48.692Z,116.67
2019-05-20T06:13:18.254Z,110.67
2019-05-20T06:15:47.703Z,131.70
2019-05-20T06:18:17.289Z,153.30
2019-05-20T06:20:46.693Z,109.93
2019-05-20T06:23:16.073Z,115.07
2019-05-20T06:25:45.465Z,119.97
2019-05-20T06:28:14.998Z,113.73
2019-05-20T06:30:45.640Z,99.93
2019-05-20T06:33:15.325Z,131.33
2019-05-20T06:35:44.977Z,103.80
2019-05-20T06:38:33.480Z,118.87
2019-05-20T06:41:02.975Z,121.97
2019-05-20T06:43:32.609Z,114.03
2019-05-20T06:46:02.044Z,110.03
2019-05-20T06:48:31.472Z,130.67
2019-05-20T06:51:01.182Z,119.90
2019-05-20T06:53:30.766Z,158.00
2019-05-20T06:56:00.398Z,119.67
2019-05-20T06:58:29.829Z,125.17
2019-05-20T07:00:59.281Z,98.27
2019-05-20T07:03:28.818Z,104.10
2019-05-20T07:05:58.369Z,100.10
2019-05-20T07:08:27.841Z,127.53
2019-05-20T07:10:57.408Z,108.00
2019-05-20T07:13:26.988Z,126.00
2019-05-20T07:15:56.484Z,107.50
2019-05-20T07:18:27.550Z,121.90
2019-05-20T07:20:57.180Z,118.17
2019-05-20T07:23:26.679Z,105.70
2019-05-20T07:25:56.107Z,112.07
2019-05-20T07:28:25.573Z,107.13
2019-05-20T07:30:55.093Z,109.80
2019-05-20T07:33:24.507Z,99.37
2019-05-20T07:35:54.967Z,101.87
2019-05-20T07:38:24.449Z,110.73
2019-05-20T07:40:53.849Z,97.10
2019-05-20T07:43:23.197Z,92.80
2019-05-20T07:45:52.875Z,99.87
2019-05-20T07:48:22.407Z,110.50
2019-05-20T07:50:51.967Z,101.90
2019-05-20T07:53:21.761Z,99.50
2019-05-20T07:55:59.379Z,104.10
2019-05-20T07:58:33.453Z,122.30
2019-05-20T08:01:01.585Z,94.13
2019-05-20T08:03:31.057Z,103.57
2019-05-20T08:06:00.542Z,100.30
2019-05-20T08:08:29.941Z,72.83
2019-05-20T08:10:59.507Z,123.77
2019-05-20T08:13:28.972Z,96.30
2019-05-20T08:15:58.541Z,90.83
2019-05-20T08:18:28.083Z,93.30
2019-05-20T08:20:57.603Z,97.97
2019-05-20T08:23:26.978Z,98.53
2019-05-20T08:25:56.382Z,102.83
2019-05-20T08:28:25.753Z,115.20
2019-05-20T08:30:55.354Z,88.90
2019-05-20T08:33:25.144Z,112.87
2019-05-20T08:35:54.628Z,95.27
2019-05-20T08:38:24.091Z,98.17
2019-05-20T08:40:53.778Z,110.70
2019-05-20T08:43:23.129Z,80.50
2019-05-20T08:45:52.564Z,84.30
2019-05-20T08:48:22.269Z,80.07
2019-05-20T08:50:51.733Z,89.43
2019-05-20T08:53:21.291Z,85.57
2019-05-20T08:55:50.885Z,102.73
2019-05-20T08:58:20.506Z,81.83
2019-05-20T09:00:49.877Z,98.03
2019-05-20T09:03:19.335Z,91.20
2019-05-20T09:05:48.844Z,79.60
2019-05-20T09:08:18.289Z,81.30
2019-05-20T09:10:47.779Z,79.73
2019-05-20T09:13:17.253Z,79.73
2019-05-20T09:15:46.754Z,94.37
2019-05-20T09:18:16.170Z,84.53
2019-05-20T09:20:45.721Z,81.40
2019-05-20T09:23:15.126Z,83.77
2019-05-20T09:25:44.628Z,74.67
2019-05-20T09:28:14.149Z,89.10
2019-05-20T09:30:43.506Z,83.40
2019-05-20T09:33:12.945Z,72.57
2019-05-20T09:35:42.677Z,89.53
2019-05-20T09:38:20.135Z,100.00
2019-05-20T09:40:46.751Z,80.07
2019-05-20T09:43:16.317Z,69.17
2019-05-20T09:45:45.697Z,80.37
2019-05-20T09:48:15.578Z,68.93
2019-05-20T09:50:44.981Z,66.60
2019-05-20T09:53:14.397Z,72.87
2019-05-20T09:55:44.049Z,71.67
2019-05-20T09:58:13.971Z,82.87
2019-05-20T10:00:43.426Z,79.73
2019-05-20T10:03:12.828Z,74.17
2019-05-20T10:05:42.247Z,73.23
2019-05-20T10:08:11.791Z,74.10
2019-05-20T10:10:41.350Z,87.73
2019-05-20T10:13:10.866Z,84.83
2019-05-20T10:15:40.440Z,79.27
2019-05-20T10:18:09.951Z,90.53
2019-05-20T10:20:39.365Z,76.90
2019-05-20T10:23:08.810Z,79.27
2019-05-20T10:25:38.678Z,83.40
2019-05-20T10:28:08.267Z,78.53
2019-05-20T10:30:37.661Z,82.67
2019-05-20T10:33:09.323Z,76.10
2019-05-20T10:35:38.279Z,80.60
2019-05-20T10:38:07.721Z,95.57
2019-05-20T10:40:37.149Z,101.30
2019-05-20T10:43:06.862Z,103.27
2019-05-20T10:45:36.524Z,95.47
2019-05-20T10:48:08.727Z,83.30
2019-05-20T10:50:37.179Z,102.03
2019-05-20T10:53:06.624Z,80.83
2019-05-20T10:55:35.999Z,90.30
2019-05-20T10:58:05.558Z,80.80
2019-05-20T11:00:34.913Z,87.67
2019-05-20T11:03:04.290Z,104.17
2019-05-20T11:05:36.142Z,103.70
2019-05-20T11:08:05.602Z,84.27
2019-05-20T11:10:35.022Z,102.47
2019-05-20T11:13:04.460Z,83.33
2019-05-20T11:15:34.928Z,110.10
2019-05-20T11:18:04.509Z,82.77
2019-05-20T11:20:33.888Z,97.97
2019-05-20T11:23:03.408Z,89.03
2019-05-20T11:25:38.773Z,80.10
2019-05-20T11:28:11.831Z,72.63
2019-05-20T11:30:39.417Z,80.73
2019-05-20T11:33:08.918Z,109.10
2019-05-20T11:35:38.392Z,93.60
2019-05-20T11:38:07.850Z,101.40
2019-05-20T11:40:37.302Z,89.00
2019-05-20T11:43:06.758Z,85.23
2019-05-20T11:45:36.222Z,86.53
2019-05-20T11:48:05.725Z,97.57
2019-05-20T11:50:35.188Z,92.40
2019-05-20T11:53:04.823Z,97.03
2019-05-20T11:55:34.309Z,91.73
2019-05-20T11:58:15.475Z,79.10
2019-05-20T12:00:35.019Z,80.17
2019-05-20T12:03:04.385Z,76.67
2019-05-20T12:05:33.858Z,80.40
2019-05-20T12:08:03.341Z,80.77
2019-05-20T12:10:32.843Z,96.43
2019-05-20T12:13:02.231Z,78.53
2019-05-20T12:15:31.792Z,84.73
2019-05-20T12:18:01.307Z,89.83
2019-05-20T12:20:30.773Z,93.50
2019-05-20T12:23:00.279Z,92.27
2019-05-20T12:25:29.651Z,78.67
2019-05-20T12:27:59.075Z,71.30
2019-05-20T12:30:28.519Z,86.67
2019-05-20T12:33:17.298Z,83.17
2019-05-20T12:35:29.130Z,85.47
2019-05-20T12:37:58.643Z,97.83
2019-05-20T12:40:28.169Z,77.13
2019-05-20T12:42:57.619Z,98.50
2019-05-20T12:45:27.152Z,85.53
2019-05-20T12:47:56.659Z,74.33
2019-05-20T12:50:26.251Z,78.77
2019-05-20T12:52:55.669Z,83.53
2019-05-20T12:55:25.196Z,82.43
2019-05-20T12:57:54.642Z,82.07
2019-05-20T13:00:24.333Z,93.80
2019-05-20T13:02:53.705Z,85.07
2019-05-20T13:05:23.119Z,89.33
2019-05-20T13:07:52.647Z,88.37
2019-05-20T13:10:29.563Z,82.37
2019-05-20T13:12:53.360Z,95.07
2019-05-20T13:15:22.912Z,90.57
2019-05-20T13:17:52.428Z,85.30
2019-05-20T13:20:22.942Z,75.10
2019-05-20T13:22:52.361Z,102.10
2019-05-20T13:25:21.957Z,103.50
2019-05-20T13:27:51.532Z,86.43
2019-05-20T13:30:21.460Z,94.00
2019-05-20T13:32:51.164Z,77.77
2019-05-20T13:35:20.692Z,85.10
2019-05-20T13:37:50.137Z,78.50
2019-05-20T13:40:19.540Z,109.33
2019-05-20T13:42:48.976Z,91.10
2019-05-20T13:45:19.132Z,82.03
2019-05-20T13:47:48.600Z,89.30
2019-05-20T13:50:19.317Z,79.00
2019-05-20T13:52:48.696Z,97.97
2019-05-20T13:55:18.232Z,92.07
2019-05-20T13:57:47.713Z,88.80
2019-05-20T14:00:17.640Z,82.67
2019-05-20T14:02:47.051Z,81.57
2019-05-20T14:05:16.620Z,82.63
2019-05-20T14:07:46.102Z,76.40
2019-05-20T14:10:15.820Z,81.97
2019-05-20T14:12:45.210Z,64.40
2019-05-20T14:15:14.850Z,77.03
2019-05-20T14:17:44.263Z,77.03
2019-05-20T14:20:15.460Z,81.20
2019-05-20T14:22:44.953Z,71.13
2019-05-20T14:25:14.560Z,65.50
2019-05-20T14:27:44.108Z,59.20
2019-05-20T14:30:13.738Z,78.13
2019-05-20T14:32:43.141Z,51.70
2019-05-20T14:35:12.718Z,57.07
2019-05-20T14:37:42.276Z,74.03
2019-05-20T14:40:12.886Z,60.13
2019-05-20T14:42:42.257Z,61.00
2019-05-20T14:45:11.922Z,76.20
2019-05-20T14:47:41.321Z,59.60
2019-05-20T14:50:11.669Z,53.60
2019-05-20T14:52:41.084Z,54.30
2019-05-20T14:55:10.745Z,62.40
2019-05-20T14:57:40.630Z,81.73
2019-05-20T15:00:10.250Z,58.00
2019-05-20T15:02:39.700Z,49.00
2019-05-20T15:05:10.293Z,50.40
2019-05-20T15:07:39.749Z,51.07
2019-05-20T15:10:09.904Z,51.60
2019-05-20T15:12:39.397Z,50.23
2019-05-20T15:15:10.220Z,54.60
2019-05-20T15:17:39.690Z,57.20
2019-05-20T15:20:09.436Z,45.00
2019-05-20T15:22:38.976Z,49.37
2019-05-20T15:25:08.884Z,56.50
2019-05-20T15:27:38.438Z,51.37
2019-05-20T15:30:09.490Z,58.97
2019-05-20T15:32:38.999Z,52.97
2019-05-20T15:35:08.575Z,56.30
2019-05-20T15:37:38.047Z,60.90
2019-05-20T15:40:08.012Z,53.37
2019-05-20T15:42:37.478Z,48.90
2019-05-20T15:45:07.838Z,50.83
2019-05-20T15:47:37.269Z,48.60
2019-05-20T15:50:09.992Z,52.80
2019-05-20T15:52:38.386Z,42.90
2019-05-20T15:55:07.947Z,48.10
2019-05-20T15:57:37.449Z,59.47
2019-05-20T16:00:07.540Z,48.80
2019-05-20T16:02:37.056Z,52.00
2019-05-20T16:05:06.788Z,47.17
2019-05-20T16:07:36.282Z,44.77
2019-05-20T16:10:05.910Z,45.80
2019-05-20T16:12:35.542Z,41.60
2019-05-20T16:15:05.581Z,46.53
2019-05-20T16:17:35.132Z,44.60
2019-05-20T16:20:07.005Z,49.50
2019-05-20T16:22:35.927Z,47.40
2019-05-20T16:25:05.917Z,59.57
2019-05-20T16:27:35.451Z,49.77
2019-05-20T16:30:07.353Z,55.17
2019-05-20T16:32:37.145Z,41.47
2019-05-20T16:35:06.925Z,59.90
2019-05-20T16:37:36.360Z,39.33
2019-05-20T16:40:06.423Z,64.53
2019-05-20T16:42:35.939Z,52.43
2019-05-20T16:45:06.141Z,61.20
2019-05-20T16:47:35.689Z,61.97
2019-05-20T16:50:06.242Z,79.87
2019-05-20T16:52:36.243Z,66.03
2019-05-20T16:55:05.897Z,58.20
2019-05-20T16:57:35.461Z,58.40
2019-05-20T17:00:14.743Z,73.63
2019-05-20T17:02:37.465Z,60.07
2019-05-20T17:05:07.058Z,78.27
2019-05-20T17:07:42.318Z,69.73
2019-05-20T17:10:11.838Z,70.13
2019-05-20T17:12:41.252Z,70.20
2019-05-20T17:15:10.978Z,66.63
2019-05-20T17:17:40.527Z,64.97
2019-05-20T17:20:10.171Z,59.37
2019-05-20T17:22:39.584Z,75.60
2019-05-20T17:25:09.204Z,67.67
2019-05-20T17:27:38.808Z,71.13
2019-05-20T17:30:08.520Z,62.50
2019-05-20T17:32:37.968Z,51.80
2019-05-20T17:35:07.345Z,56.37
2019-05-20T17:37:36.920Z,58.90
2019-05-20T17:40:07.178Z,62.93
2019-05-20T17:42:36.943Z,70.13
2019-05-20T17:45:06.468Z,66.50
2019-05-20T17:47:36.168Z,69.03
2019-05-20T17:50:06.187Z,67.97
2019-05-20T17:52:35.712Z,65.23
2019-05-20T17:55:05.502Z,74.23
2019-05-20T17:57:35.059Z,58.90
2019-05-20T18:00:05.145Z,76.13
2019-05-20T18:02:34.679Z,82.10
2019-05-20T18:05:04.472Z,62.80
2019-05-20T18:07:34.041Z,77.17
2019-05-20T18:10:03.691Z,79.40
2019-05-20T18:12:33.456Z,79.17
2019-05-20T18:15:04.682Z,78.53
2019-05-20T18:17:34.238Z,77.67
2019-05-20T18:20:04.538Z,77.07
2019-05-20T18:22:34.223Z,90.30
2019-05-20T18:25:03.737Z,72.17
2019-05-20T18:27:33.412Z,75.43
2019-05-20T18:30:02.831Z,67.80
2019-05-20T18:32:32.583Z,79.03
2019-05-20T18:35:02.113Z,72.87
2019-05-20T18:37:31.563Z,91.50
2019-05-20T18:40:13.499Z,91.43
2019-05-20T18:42:32.381Z,76.83
2019-05-20T18:45:01.910Z,87.90
2019-05-20T18:47:31.605Z,76.00
2019-05-20T18:50:01.341Z,84.40
2019-05-20T18:52:31.033Z,73.23
2019-05-20T18:55:00.577Z,85.77
2019-05-20T18:57:30.368Z,82.10
2019-05-20T18:59:59.952Z,80.80
2019-05-20T19:02:29.737Z,82.43
2019-05-20T19:04:59.476Z,83.57
2019-05-20T19:07:29.248Z,84.17
2019-05-20T19:09:58.871Z,86.20
2019-05-20T19:12:28.704Z,94.67
2019-05-20T19:14:58.471Z,80.20
2019-05-20T19:17:28.201Z,74.23
2019-05-20T19:19:58.189Z,73.63
2019-05-20T19:22:27.911Z,85.73
2019-05-20T19:24:57.788Z,85.53
2019-05-20T19:27:27.550Z,77.93
2019-05-20T19:29:57.310Z,87.23
2019-05-20T19:32:27.080Z,80.83
2019-05-20T19:34:56.765Z,69.57
2019-05-20T19:37:26.542Z,93.53
2019-05-20T19:39:56.259Z,67.53
2019-05-20T19:42:26.024Z,67.97
2019-05-20T19:44:55.665Z,81.20
2019-05-20T19:47:25.465Z,73.03
2019-05-20T19:49:55.248Z,66.73
2019-05-20T19:52:25.082Z,71.40
2019-05-20T19:54:54.613Z,59.10
2019-05-20T19:57:24.109Z,78.63
2019-05-20T19:59:53.829Z,68.77
2019-05-20T20:02:23.469Z,95.43
2019-05-20T20:04:53.335Z,65.73
2019-05-20T20:07:24.090Z,76.90
2019-05-20T20:09:53.599Z,78.40
2019-05-20T20:12:23.121Z,72.07
2019-05-20T20:14:52.578Z,59.10
2019-05-20T20:17:22.345Z,70.37
2019-05-20T20:19:52.086Z,58.20
2019-05-20T20:22:21.583Z,54.90
2019-05-20T20:24:51.051Z,53.13
2019-05-20T20:27:20.647Z,51.43
2019-05-20T20:29:50.214Z,45.33
2019-05-20T20:32:35.167Z,58.47
2019-05-20T20:34:50.917Z,59.60
2019-05-20T20:37:20.402Z,50.13
2019-05-20T20:39:49.857Z,55.83
2019-05-20T20:42:19.340Z,59.23
2019-05-20T20:44:48.755Z,46.70
2019-05-20T20:47:18.257Z,50.30
2019-05-20T20:49:47.677Z,46.93
2019-05-20T20:52:17.012Z,48.63
2019-05-20T20:54:46.402Z,57.13
2019-05-20T20:57:15.941Z,56.10
2019-05-20T20:59:45.454Z,57.07
2019-05-20T21:02:14.965Z,40.27
2019-05-20T21:04:44.448Z,49.60
2019-05-20T21:07:13.860Z,62.27
2019-05-20T21:09:43.328Z,52.17
2019-05-20T21:12:12.866Z,51.33
2019-05-20T21:14:42.398Z,47.83
2019-05-20T21:17:11.837Z,44.33
2019-05-20T21:19:41.292Z,55.53
2019-05-20T21:22:10.952Z,58.83
2019-05-20T21:24:40.397Z,48.77
2019-05-20T21:27:09.903Z,56.87
2019-05-20T21:29:39.357Z,47.97
2019-05-20T21:32:08.855Z,43.33
2019-05-20T21:34:38.381Z,43.00
2019-05-20T21:37:07.861Z,75.90
2019-05-20T21:39:37.332Z,53.47
2019-05-20T21:42:07.260Z,52.00
2019-05-20T21:44:36.801Z,62.00
2019-05-20T21:47:06.282Z,54.23
2019-05-20T21:49:35.792Z,56.77
2019-05-20T21:52:05.248Z,43.40
2019-05-20T21:54:34.771Z,62.70
2019-05-20T21:57:04.218Z,53.47
2019-05-20T21:59:33.742Z,48.17
2019-05-20T22:02:03.210Z,56.23
2019-05-20T22:04:32.765Z,57.20
2019-05-20T22:07:02.183Z,53.20
2019-05-20T22:09:33.603Z,43.87
2019-05-20T22:12:02.925Z,53.40
2019-05-20T22:14:32.461Z,56.47
2019-05-20T22:17:01.943Z,70.60
2019-05-20T22:19:31.459Z,56.07
2019-05-20T22:22:17.933Z,53.13
2019-05-20T22:24:47.471Z,54.33
2019-05-20T22:27:16.983Z,53.97
2019-05-20T22:29:46.335Z,66.40
2019-05-20T22:32:15.789Z,47.20
2019-05-20T22:34:53.090Z,58.07
2019-05-20T22:37:16.457Z,57.87
2019-05-20T22:39:45.941Z,47.17
2019-05-20T22:42:15.359Z,42.53
2019-05-20T22:44:44.779Z,62.63
2019-05-20T22:47:14.087Z,43.03
2019-05-20T22:49:43.581Z,48.47
2019-05-20T22:52:12.942Z,57.10
2019-05-20T22:54:42.440Z,49.67
2019-05-20T22:57:11.928Z,53.90
2019-05-20T22:59:41.377Z,49.53
2019-05-20T23:02:10.707Z,54.77
2019-05-20T23:04:40.141Z,66.13
2019-05-20T23:07:09.542Z,52.93
2019-05-20T23:09:39.025Z,43.53
2019-05-20T23:12:08.447Z,52.43
2019-05-20T23:14:37.990Z,51.80
2019-05-20T23:17:07.479Z,43.50
2019-05-20T23:19:36.880Z,71.83
2019-05-20T23:22:06.197Z,59.00
2019-05-20T23:24:35.568Z,56.63
2019-05-20T23:27:05.080Z,53.43
2019-05-20T23:29:37.399Z,57.43
2019-05-20T23:32:06.834Z,43.77
2019-05-20T23:34:36.232Z,54.20
2019-05-20T23:37:05.684Z,61.07
2019-05-20T23:39:35.065Z,39.70
2019-05-20T23:42:04.457Z,51.43
2019-05-20T23:44:33.822Z,45.70
2019-05-20T23:47:03.222Z,47.37
2019-05-20T23:49:32.781Z,47.93
2019-05-20T23:52:02.239Z,43.53
2019-05-20T23:54:31.675Z,61.37
2019-05-20T23:57:01.087Z,43.80
2019-05-20T23:59:30.500Z,47.30
